sensor_id;sensor_type;location;lat;lon;timestamp;pressure;altitude;pressure_sealevel;temperature;humidity
60611;BME280;46439;51.164;13.572;2023-10-09T00:00:21;100484.48;;;14.08;100.00
60611;BME280;46439;51.164;13.572;2023-10-09T00:03:20;100481.95;;;14.07;100.00
60611;BME280;46439;51.164;13.572;2023-10-09T00:05:49;100481.39;;;14.05;100.00
60611;BME280;46439;51.164;13.572;2023-10-09T00:08:21;100479.39;;;14.02;100.00
60611;BME280;46439;51.164;13.572;2023-10-09T00:10:51;100484.71;;;13.97;100.00
60611;BME280;46439;51.164;13.572;2023-10-09T00:13:24;100485.15;;;13.92;100.00
60611;BME280;46439;51.164;13.572;2023-10-09T00:16:05;100486.39;;;13.86;100.00
60611;BME280;46439;51.164;13.572;2023-10-09T00:18:40;100470.98;;;13.80;100.00
60611;BME280;46439;51.164;13.572;2023-10-09T00:21:17;100456.95;;;13.78;100.00
60611;BME280;46439;51.164;13.572;2023-10-09T00:23:48;100440.30;;;13.76;100.00
60611;BME280;46439;51.164;13.572;2023-10-09T00:26:22;100443.03;;;13.75;100.00
60611;BME280;46439;51.164;13.572;2023-10-09T00:28:51;100448.96;;;13.66;100.00
60611;BME280;46439;51.164;13.572;2023-10-09T00:31:20;100439.20;;;13.60;100.00
60611;BME280;46439;51.164;13.572;2023-10-09T00:34:04;100398.37;;;13.62;100.00
60611;BME280;46439;51.164;13.572;2023-10-09T00:36:33;100385.23;;;13.59;100.00
60611;BME280;46439;51.164;13.572;2023-10-09T00:39:18;100377.25;;;13.58;100.00
60611;BME280;46439;51.164;13.572;2023-10-09T00:42:06;100367.64;;;13.68;100.00
60611;BME280;46439;51.164;13.572;2023-10-09T00:44:36;100343.50;;;13.70;100.00
60611;BME280;46439;51.164;13.572;2023-10-09T00:47:12;100339.42;;;13.72;100.00
60611;BME280;46439;51.164;13.572;2023-10-09T00:49:56;100342.90;;;13.76;100.00
60611;BME280;46439;51.164;13.572;2023-10-09T00:52:33;100355.92;;;13.82;100.00
60611;BME280;46439;51.164;13.572;2023-10-09T00:55:14;100372.50;;;13.82;100.00
60611;BME280;46439;51.164;13.572;2023-10-09T00:57:56;100383.55;;;13.85;100.00
60611;BME280;46439;51.164;13.572;2023-10-09T01:00:26;100383.25;;;13.91;100.00
60611;BME280;46439;51.164;13.572;2023-10-09T01:03:02;100379.61;;;13.94;100.00
60611;BME280;46439;51.164;13.572;2023-10-09T01:06:02;100384.86;;;13.97;100.00
60611;BME280;46439;51.164;13.572;2023-10-09T01:08:38;100381.42;;;13.98;100.00
60611;BME280;46439;51.164;13.572;2023-10-09T01:11:12;100373.56;;;13.97;100.00
60611;BME280;46439;51.164;13.572;2023-10-09T01:13:48;100370.05;;;13.96;100.00
60611;BME280;46439;51.164;13.572;2023-10-09T01:16:18;100360.45;;;13.98;100.00
60611;BME280;46439;51.164;13.572;2023-10-09T01:18:50;100362.32;;;13.97;100.00
60611;BME280;46439;51.164;13.572;2023-10-09T01:21:20;100355.50;;;13.95;100.00
60611;BME280;46439;51.164;13.572;2023-10-09T01:23:55;100338.17;;;13.99;100.00
60611;BME280;46439;51.164;13.572;2023-10-09T01:26:37;100332.32;;;13.98;100.00
60611;BME280;46439;51.164;13.572;2023-10-09T01:29:14;100333.90;;;13.98;100.00
60611;BME280;46439;51.164;13.572;2023-10-09T01:31:43;100323.98;;;13.96;100.00
60611;BME280;46439;51.164;13.572;2023-10-09T01:34:15;100319.20;;;13.94;100.00
60611;BME280;46439;51.164;13.572;2023-10-09T01:36:45;100323.00;;;13.92;100.00
60611;BME280;46439;51.164;13.572;2023-10-09T01:39:17;100326.03;;;13.93;100.00
60611;BME280;46439;51.164;13.572;2023-10-09T01:41:52;100322.11;;;13.93;100.00
60611;BME280;46439;51.164;13.572;2023-10-09T01:44:28;100322.20;;;13.94;100.00
60611;BME280;46439;51.164;13.572;2023-10-09T01:47:03;100316.01;;;13.96;100.00
60611;BME280;46439;51.164;13.572;2023-10-09T01:49:42;100310.80;;;13.98;100.00
60611;BME280;46439;51.164;13.572;2023-10-09T01:52:12;100301.67;;;14.02;100.00
60611;BME280;46439;51.164;13.572;2023-10-09T01:54:53;100294.86;;;14.03;100.00
60611;BME280;46439;51.164;13.572;2023-10-09T01:57:21;100286.98;;;14.05;100.00
60611;BME280;46439;51.164;13.572;2023-10-09T01:59:51;100266.42;;;14.08;100.00
60611;BME280;46439;51.164;13.572;2023-10-09T02:02:23;100258.16;;;14.07;100.00
60611;BME280;46439;51.164;13.572;2023-10-09T02:04:56;100255.52;;;14.08;100.00
60611;BME280;46439;51.164;13.572;2023-10-09T02:07:36;100252.86;;;14.12;100.00
60611;BME280;46439;51.164;13.572;2023-10-09T02:10:20;100234.14;;;14.12;100.00
60611;BME280;46439;51.164;13.572;2023-10-09T02:12:59;100243.70;;;14.11;100.00
60611;BME280;46439;51.164;13.572;2023-10-09T02:15:29;100247.77;;;14.12;100.00
60611;BME280;46439;51.164;13.572;2023-10-09T02:18:14;100236.47;;;14.15;100.00
60611;BME280;46439;51.164;13.572;2023-10-09T02:20:53;100225.71;;;14.19;100.00
60611;BME280;46439;51.164;13.572;2023-10-09T02:23:33;100206.97;;;14.18;100.00
60611;BME280;46439;51.164;13.572;2023-10-09T02:26:10;100198.35;;;14.18;100.00
60611;BME280;46439;51.164;13.572;2023-10-09T02:28:46;100192.58;;;14.16;100.00
60611;BME280;46439;51.164;13.572;2023-10-09T02:31:27;100185.73;;;14.18;100.00
60611;BME280;46439;51.164;13.572;2023-10-09T02:34:08;100180.52;;;14.18;100.00
60611;BME280;46439;51.164;13.572;2023-10-09T02:36:38;100184.45;;;14.24;100.00
60611;BME280;46439;51.164;13.572;2023-10-09T02:39:10;100182.33;;;14.30;100.00
60611;BME280;46439;51.164;13.572;2023-10-09T02:42:04;100175.21;;;14.34;100.00
60611;BME280;46439;51.164;13.572;2023-10-09T02:44:48;100161.56;;;14.40;100.00
60611;BME280;46439;51.164;13.572;2023-10-09T02:47:21;100149.70;;;14.41;100.00
60611;BME280;46439;51.164;13.572;2023-10-09T02:49:53;100149.05;;;14.42;100.00
60611;BME280;46439;51.164;13.572;2023-10-09T02:52:29;100142.54;;;14.49;100.00
60611;BME280;46439;51.164;13.572;2023-10-09T02:55:02;100129.91;;;14.53;100.00
60611;BME280;46439;51.164;13.572;2023-10-09T02:57:36;100125.13;;;14.53;100.00
60611;BME280;46439;51.164;13.572;2023-10-09T03:00:07;100120.80;;;14.57;100.00
60611;BME280;46439;51.164;13.572;2023-10-09T03:02:58;100111.98;;;14.64;100.00
60611;BME280;46439;51.164;13.572;2023-10-09T03:05:27;100114.04;;;14.68;100.00
60611;BME280;46439;51.164;13.572;2023-10-09T03:07:57;100119.12;;;14.69;100.00
60611;BME280;46439;51.164;13.572;2023-10-09T03:10:25;100106.29;;;14.71;100.00
60611;BME280;46439;51.164;13.572;2023-10-09T03:12:54;100083.34;;;14.71;100.00
60611;BME280;46439;51.164;13.572;2023-10-09T03:15:23;100078.98;;;14.69;100.00
60611;BME280;46439;51.164;13.572;2023-10-09T03:17:51;100070.08;;;14.68;100.00
60611;BME280;46439;51.164;13.572;2023-10-09T03:20:20;100061.80;;;14.70;100.00
60611;BME280;46439;51.164;13.572;2023-10-09T03:22:48;100051.54;;;14.71;100.00
60611;BME280;46439;51.164;13.572;2023-10-09T03:25:18;100048.34;;;14.69;100.00
60611;BME280;46439;51.164;13.572;2023-10-09T03:27:46;100038.35;;;14.70;100.00
60611;BME280;46439;51.164;13.572;2023-10-09T03:30:16;100031.13;;;14.72;100.00
60611;BME280;46439;51.164;13.572;2023-10-09T03:32:47;100031.16;;;14.70;100.00
60611;BME280;46439;51.164;13.572;2023-10-09T03:35:19;100043.78;;;14.66;100.00
60611;BME280;46439;51.164;13.572;2023-10-09T03:37:57;100055.66;;;14.61;100.00
60611;BME280;46439;51.164;13.572;2023-10-09T03:40:36;100056.09;;;14.61;100.00
60611;BME280;46439;51.164;13.572;2023-10-09T03:43:07;100057.35;;;14.64;100.00
60611;BME280;46439;51.164;13.572;2023-10-09T03:45:38;100061.04;;;14.67;100.00
60611;BME280;46439;51.164;13.572;2023-10-09T03:48:13;100053.29;;;14.70;100.00
60611;BME280;46439;51.164;13.572;2023-10-09T03:50:55;100055.63;;;14.70;100.00
60611;BME280;46439;51.164;13.572;2023-10-09T03:53:50;100062.95;;;14.73;100.00
60611;BME280;46439;51.164;13.572;2023-10-09T03:56:19;100054.33;;;14.73;100.00
60611;BME280;46439;51.164;13.572;2023-10-09T03:58:51;100048.14;;;14.70;100.00
60611;BME280;46439;51.164;13.572;2023-10-09T04:01:23;100044.41;;;14.68;100.00
60611;BME280;46439;51.164;13.572;2023-10-09T04:03:59;100050.76;;;14.64;100.00
60611;BME280;46439;51.164;13.572;2023-10-09T04:06:32;100053.17;;;14.64;100.00
60611;BME280;46439;51.164;13.572;2023-10-09T04:09:02;100051.98;;;14.67;100.00
60611;BME280;46439;51.164;13.572;2023-10-09T04:11:46;100046.31;;;14.74;100.00
60611;BME280;46439;51.164;13.572;2023-10-09T04:14:22;100049.40;;;14.81;100.00
60611;BME280;46439;51.164;13.572;2023-10-09T04:17:00;100042.80;;;14.86;100.00
60611;BME280;46439;51.164;13.572;2023-10-09T04:19:55;100050.38;;;14.91;100.00
60611;BME280;46439;51.164;13.572;2023-10-09T04:22:42;100047.92;;;14.94;100.00
60611;BME280;46439;51.164;13.572;2023-10-09T04:25:19;100043.88;;;14.92;100.00
60611;BME280;46439;51.164;13.572;2023-10-09T04:27:54;100034.95;;;14.93;100.00
60611;BME280;46439;51.164;13.572;2023-10-09T04:30:41;100031.66;;;14.92;100.00
60611;BME280;46439;51.164;13.572;2023-10-09T04:33:14;100026.95;;;14.89;100.00
60611;BME280;46439;51.164;13.572;2023-10-09T04:36:08;100028.05;;;14.91;100.00
60611;BME280;46439;51.164;13.572;2023-10-09T04:38:47;100019.39;;;14.92;100.00
60611;BME280;46439;51.164;13.572;2023-10-09T04:41:31;100017.52;;;14.93;100.00
60611;BME280;46439;51.164;13.572;2023-10-09T04:44:20;100014.59;;;14.91;100.00
60611;BME280;46439;51.164;13.572;2023-10-09T04:46:53;100026.41;;;14.84;100.00
60611;BME280;46439;51.164;13.572;2023-10-09T04:49:38;100020.06;;;14.74;100.00
60611;BME280;46439;51.164;13.572;2023-10-09T04:52:16;100011.34;;;14.68;100.00
60611;BME280;46439;51.164;13.572;2023-10-09T04:54:53;99999.68;;;14.67;100.00
60611;BME280;46439;51.164;13.572;2023-10-09T04:57:39;99985.05;;;14.69;100.00
60611;BME280;46439;51.164;13.572;2023-10-09T05:00:15;99984.33;;;14.71;100.00
60611;BME280;46439;51.164;13.572;2023-10-09T05:02:54;99978.34;;;14.72;100.00
60611;BME280;46439;51.164;13.572;2023-10-09T05:05:35;99974.56;;;14.70;100.00
60611;BME280;46439;51.164;13.572;2023-10-09T05:08:10;99961.36;;;14.70;100.00
60611;BME280;46439;51.164;13.572;2023-10-09T05:10:58;99958.97;;;14.69;100.00
60611;BME280;46439;51.164;13.572;2023-10-09T05:13:28;99952.02;;;14.67;100.00
60611;BME280;46439;51.164;13.572;2023-10-09T05:16:10;99954.73;;;14.65;100.00
60611;BME280;46439;51.164;13.572;2023-10-09T05:18:44;99953.02;;;14.61;100.00
60611;BME280;46439;51.164;13.572;2023-10-09T05:21:13;99945.95;;;14.54;100.00
60611;BME280;46439;51.164;13.572;2023-10-09T05:24:01;99938.67;;;14.50;100.00
60611;BME280;46439;51.164;13.572;2023-10-09T05:26:43;99927.08;;;14.45;100.00
60611;BME280;46439;51.164;13.572;2023-10-09T05:29:15;99934.89;;;14.43;100.00
60611;BME280;46439;51.164;13.572;2023-10-09T05:32:03;99940.21;;;14.48;100.00
60611;BME280;46439;51.164;13.572;2023-10-09T05:34:42;99937.08;;;14.50;100.00
60611;BME280;46439;51.164;13.572;2023-10-09T05:37:30;99938.24;;;14.51;100.00
60611;BME280;46439;51.164;13.572;2023-10-09T05:40:03;99941.63;;;14.46;100.00
60611;BME280;46439;51.164;13.572;2023-10-09T05:42:51;99952.23;;;14.46;100.00
60611;BME280;46439;51.164;13.572;2023-10-09T05:45:28;99954.34;;;14.46;100.00
60611;BME280;46439;51.164;13.572;2023-10-09T05:48:15;99958.31;;;14.48;100.00
60611;BME280;46439;51.164;13.572;2023-10-09T05:50:44;99948.86;;;14.51;100.00
60611;BME280;46439;51.164;13.572;2023-10-09T05:53:22;99950.39;;;14.56;100.00
60611;BME280;46439;51.164;13.572;2023-10-09T05:56:08;99949.20;;;14.54;100.00
60611;BME280;46439;51.164;13.572;2023-10-09T05:58:54;99950.67;;;14.60;100.00
60611;BME280;46439;51.164;13.572;2023-10-09T06:01:30;99947.88;;;14.60;100.00
60611;BME280;46439;51.164;13.572;2023-10-09T06:04:16;99940.48;;;14.60;100.00
60611;BME280;46439;51.164;13.572;2023-10-09T06:06:44;99942.58;;;14.60;100.00
60611;BME280;46439;51.164;13.572;2023-10-09T06:09:12;99935.19;;;14.64;100.00
60611;BME280;46439;51.164;13.572;2023-10-09T06:11:42;99940.66;;;14.71;100.00
60611;BME280;46439;51.164;13.572;2023-10-09T06:14:17;99942.73;;;14.77;100.00
60611;BME280;46439;51.164;13.572;2023-10-09T06:17:12;99937.09;;;14.76;100.00
60611;BME280;46439;51.164;13.572;2023-10-09T06:19:39;99937.38;;;14.76;100.00
60611;BME280;46439;51.164;13.572;2023-10-09T06:22:10;99937.63;;;14.78;100.00
60611;BME280;46439;51.164;13.572;2023-10-09T06:24:55;99936.63;;;14.83;100.00
60611;BME280;46439;51.164;13.572;2023-10-09T06:27:24;99938.17;;;14.85;100.00
60611;BME280;46439;51.164;13.572;2023-10-09T06:30:11;99934.80;;;14.82;100.00
60611;BME280;46439;51.164;13.572;2023-10-09T06:32:50;99928.22;;;14.78;100.00
60611;BME280;46439;51.164;13.572;2023-10-09T06:35:24;99928.81;;;14.75;100.00
60611;BME280;46439;51.164;13.572;2023-10-09T06:37:57;99938.39;;;14.75;100.00
60611;BME280;46439;51.164;13.572;2023-10-09T06:40:27;99940.38;;;14.74;100.00
60611;BME280;46439;51.164;13.572;2023-10-09T06:43:03;99928.11;;;14.86;100.00
60611;BME280;46439;51.164;13.572;2023-10-09T06:45:41;99924.14;;;14.86;100.00
60611;BME280;46439;51.164;13.572;2023-10-09T06:48:12;99925.69;;;14.88;100.00
60611;BME280;46439;51.164;13.572;2023-10-09T06:51:01;99935.17;;;14.89;100.00
60611;BME280;46439;51.164;13.572;2023-10-09T06:53:39;99935.92;;;14.83;100.00
60611;BME280;46439;51.164;13.572;2023-10-09T06:56:32;99945.92;;;14.96;100.00
60611;BME280;46439;51.164;13.572;2023-10-09T06:58:59;99945.89;;;15.01;100.00
60611;BME280;46439;51.164;13.572;2023-10-09T07:01:45;99940.91;;;15.01;100.00
60611;BME280;46439;51.164;13.572;2023-10-09T07:04:31;99954.27;;;15.04;100.00
60611;BME280;46439;51.164;13.572;2023-10-09T07:06:58;99951.25;;;15.08;100.00
60611;BME280;46439;51.164;13.572;2023-10-09T07:09:26;99961.13;;;15.10;100.00
60611;BME280;46439;51.164;13.572;2023-10-09T07:12:13;99964.92;;;15.15;100.00
60611;BME280;46439;51.164;13.572;2023-10-09T07:14:47;99968.48;;;15.17;100.00
60611;BME280;46439;51.164;13.572;2023-10-09T07:17:14;99975.01;;;15.21;100.00
60611;BME280;46439;51.164;13.572;2023-10-09T07:19:53;99973.42;;;15.29;100.00
60611;BME280;46439;51.164;13.572;2023-10-09T07:22:20;99963.67;;;15.35;100.00
60611;BME280;46439;51.164;13.572;2023-10-09T07:24:47;99958.48;;;15.40;100.00
60611;BME280;46439;51.164;13.572;2023-10-09T07:27:24;99955.67;;;15.43;100.00
60611;BME280;46439;51.164;13.572;2023-10-09T07:30:11;99965.33;;;15.50;100.00
60611;BME280;46439;51.164;13.572;2023-10-09T07:32:57;99969.98;;;15.51;100.00
60611;BME280;46439;51.164;13.572;2023-10-09T07:35:33;99965.02;;;15.51;100.00
60611;BME280;46439;51.164;13.572;2023-10-09T07:38:09;99964.84;;;15.47;100.00
60611;BME280;46439;51.164;13.572;2023-10-09T07:40:36;99968.52;;;15.47;100.00
60611;BME280;46439;51.164;13.572;2023-10-09T07:43:23;99975.59;;;15.51;100.00
60611;BME280;46439;51.164;13.572;2023-10-09T07:46:03;99979.32;;;15.52;100.00
60611;BME280;46439;51.164;13.572;2023-10-09T07:48:50;99976.52;;;15.53;100.00
60611;BME280;46439;51.164;13.572;2023-10-09T07:51:20;99979.41;;;15.57;100.00
60611;BME280;46439;51.164;13.572;2023-10-09T07:53:50;99978.19;;;15.61;100.00
60611;BME280;46439;51.164;13.572;2023-10-09T07:56:24;99982.26;;;15.60;100.00
60611;BME280;46439;51.164;13.572;2023-10-09T07:58:51;99982.58;;;15.63;100.00
60611;BME280;46439;51.164;13.572;2023-10-09T08:01:18;99984.66;;;15.69;100.00
60611;BME280;46439;51.164;13.572;2023-10-09T08:04:04;99988.71;;;15.68;100.00
60611;BME280;46439;51.164;13.572;2023-10-09T08:06:46;99989.17;;;15.66;100.00
60611;BME280;46439;51.164;13.572;2023-10-09T08:09:14;99984.38;;;15.67;100.00
60611;BME280;46439;51.164;13.572;2023-10-09T08:11:41;99987.05;;;15.65;100.00
60611;BME280;46439;51.164;13.572;2023-10-09T08:14:14;99983.94;;;15.71;100.00
60611;BME280;46439;51.164;13.572;2023-10-09T08:16:59;99989.34;;;15.69;100.00
60611;BME280;46439;51.164;13.572;2023-10-09T08:19:38;99993.08;;;15.66;100.00
60611;BME280;46439;51.164;13.572;2023-10-09T08:22:30;100002.27;;;15.69;100.00
60611;BME280;46439;51.164;13.572;2023-10-09T08:24:57;100000.39;;;15.72;100.00
60611;BME280;46439;51.164;13.572;2023-10-09T08:27:24;99999.15;;;15.73;100.00
60611;BME280;46439;51.164;13.572;2023-10-09T08:29:57;100003.13;;;15.73;100.00
60611;BME280;46439;51.164;13.572;2023-10-09T08:32:43;100000.13;;;15.74;100.00
60611;BME280;46439;51.164;13.572;2023-10-09T08:35:27;99995.71;;;15.70;100.00
60611;BME280;46439;51.164;13.572;2023-10-09T08:37:57;99997.10;;;15.65;100.00
60611;BME280;46439;51.164;13.572;2023-10-09T08:40:30;100006.69;;;15.71;100.00
60611;BME280;46439;51.164;13.572;2023-10-09T08:43:02;100013.52;;;15.75;100.00
60611;BME280;46439;51.164;13.572;2023-10-09T08:45:35;100017.96;;;15.80;100.00
60611;BME280;46439;51.164;13.572;2023-10-09T08:48:02;100015.32;;;15.82;100.00
60611;BME280;46439;51.164;13.572;2023-10-09T08:50:32;100012.73;;;15.85;100.00
60611;BME280;46439;51.164;13.572;2023-10-09T08:53:01;100006.48;;;15.86;100.00
60611;BME280;46439;51.164;13.572;2023-10-09T08:55:31;100004.26;;;15.86;100.00
60611;BME280;46439;51.164;13.572;2023-10-09T08:57:58;100008.42;;;15.81;100.00
60611;BME280;46439;51.164;13.572;2023-10-09T09:00:25;100002.89;;;15.84;100.00
60611;BME280;46439;51.164;13.572;2023-10-09T09:03:00;100005.53;;;15.94;100.00
60611;BME280;46439;51.164;13.572;2023-10-09T09:05:27;100011.95;;;15.98;100.00
60611;BME280;46439;51.164;13.572;2023-10-09T09:07:55;100012.79;;;15.99;100.00
60611;BME280;46439;51.164;13.572;2023-10-09T09:10:28;100008.34;;;15.99;100.00
60611;BME280;46439;51.164;13.572;2023-10-09T09:13:02;100009.90;;;15.91;100.00
60611;BME280;46439;51.164;13.572;2023-10-09T09:15:30;100015.44;;;15.92;100.00
60611;BME280;46439;51.164;13.572;2023-10-09T09:18:04;100015.10;;;15.93;100.00
60611;BME280;46439;51.164;13.572;2023-10-09T09:20:32;100019.50;;;15.93;100.00
60611;BME280;46439;51.164;13.572;2023-10-09T09:23:12;100018.36;;;15.91;100.00
60611;BME280;46439;51.164;13.572;2023-10-09T09:25:43;100015.92;;;15.95;100.00
60611;BME280;46439;51.164;13.572;2023-10-09T09:28:14;100006.66;;;15.98;100.00
60611;BME280;46439;51.164;13.572;2023-10-09T09:30:48;99998.04;;;15.96;100.00
60611;BME280;46439;51.164;13.572;2023-10-09T09:33:18;99987.69;;;15.98;100.00
60611;BME280;46439;51.164;13.572;2023-10-09T09:35:58;99978.77;;;15.99;100.00
60611;BME280;46439;51.164;13.572;2023-10-09T09:38:27;99990.33;;;15.99;100.00
60611;BME280;46439;51.164;13.572;2023-10-09T09:40:56;100001.72;;;15.98;100.00
60611;BME280;46439;51.164;13.572;2023-10-09T09:43:23;100013.07;;;16.00;100.00
60611;BME280;46439;51.164;13.572;2023-10-09T09:45:52;100016.88;;;16.04;100.00
60611;BME280;46439;51.164;13.572;2023-10-09T09:48:20;100018.81;;;16.00;100.00
60611;BME280;46439;51.164;13.572;2023-10-09T09:50:49;100014.30;;;16.00;100.00
60611;BME280;46439;51.164;13.572;2023-10-09T09:53:20;100005.73;;;16.00;100.00
60611;BME280;46439;51.164;13.572;2023-10-09T09:55:53;100005.29;;;15.99;100.00
60611;BME280;46439;51.164;13.572;2023-10-09T09:58:24;100006.89;;;15.92;100.00
60611;BME280;46439;51.164;13.572;2023-10-09T10:00:52;100001.86;;;15.88;100.00
60611;BME280;46439;51.164;13.572;2023-10-09T10:03:22;100004.98;;;15.85;100.00
60611;BME280;46439;51.164;13.572;2023-10-09T10:05:50;100002.50;;;15.88;100.00
60611;BME280;46439;51.164;13.572;2023-10-09T10:08:19;100007.48;;;15.84;100.00
60611;BME280;46439;51.164;13.572;2023-10-09T10:10:46;100009.03;;;15.90;100.00
60611;BME280;46439;51.164;13.572;2023-10-09T10:16:07;100009.61;;;15.91;100.00
60611;BME280;46439;51.164;13.572;2023-10-09T10:18:53;100011.91;;;15.94;100.00
60611;BME280;46439;51.164;13.572;2023-10-09T10:21:41;100021.84;;;15.94;100.00
60611;BME280;46439;51.164;13.572;2023-10-09T10:27:20;100017.92;;;15.87;100.00
60611;BME280;46439;51.164;13.572;2023-10-09T10:32:54;100000.83;;;15.80;100.00
60611;BME280;46439;51.164;13.572;2023-10-09T10:35:24;99999.88;;;15.76;100.00
60611;BME280;46439;51.164;13.572;2023-10-09T10:38:23;100000.64;;;15.76;100.00
60611;BME280;46439;51.164;13.572;2023-10-09T10:40:50;99998.70;;;15.78;100.00
60611;BME280;46439;51.164;13.572;2023-10-09T10:43:24;99994.71;;;15.82;100.00
60611;BME280;46439;51.164;13.572;2023-10-09T10:46:13;99985.04;;;15.83;100.00
60611;BME280;46439;51.164;13.572;2023-10-09T10:48:43;99978.70;;;15.92;100.00
60611;BME280;46439;51.164;13.572;2023-10-09T10:51:13;99966.33;;;15.98;100.00
60611;BME280;46439;51.164;13.572;2023-10-09T10:53:51;99967.70;;;16.04;100.00
60611;BME280;46439;51.164;13.572;2023-10-09T10:56:21;99978.56;;;16.13;100.00
60611;BME280;46439;51.164;13.572;2023-10-09T10:59:01;99969.63;;;16.16;100.00
60611;BME280;46439;51.164;13.572;2023-10-09T11:01:31;99965.76;;;16.19;100.00
60611;BME280;46439;51.164;13.572;2023-10-09T11:04:20;99960.40;;;16.29;100.00
60611;BME280;46439;51.164;13.572;2023-10-09T11:06:59;99961.42;;;16.35;100.00
60611;BME280;46439;51.164;13.572;2023-10-09T11:09:56;99964.31;;;16.34;100.00
60611;BME280;46439;51.164;13.572;2023-10-09T11:12:41;99964.52;;;16.43;100.00
60611;BME280;46439;51.164;13.572;2023-10-09T11:15:11;99962.35;;;16.43;100.00
60611;BME280;46439;51.164;13.572;2023-10-09T11:17:58;99958.14;;;16.40;100.00
60611;BME280;46439;51.164;13.572;2023-10-09T11:20:26;99953.98;;;16.40;100.00
60611;BME280;46439;51.164;13.572;2023-10-09T11:22:58;99949.91;;;16.40;100.00
60611;BME280;46439;51.164;13.572;2023-10-09T11:25:37;99952.89;;;16.40;100.00
60611;BME280;46439;51.164;13.572;2023-10-09T11:28:20;99952.48;;;16.41;100.00
60611;BME280;46439;51.164;13.572;2023-10-09T11:30:58;99965.59;;;16.41;100.00
60611;BME280;46439;51.164;13.572;2023-10-09T11:33:43;99971.45;;;16.42;100.00
60611;BME280;46439;51.164;13.572;2023-10-09T11:36:10;99972.91;;;16.42;100.00
60611;BME280;46439;51.164;13.572;2023-10-09T11:38:38;99965.54;;;16.43;100.00
60611;BME280;46439;51.164;13.572;2023-10-09T11:41:14;99962.84;;;16.46;100.00
60611;BME280;46439;51.164;13.572;2023-10-09T11:43:52;99964.40;;;16.51;100.00
60611;BME280;46439;51.164;13.572;2023-10-09T11:46:19;99960.50;;;16.50;100.00
60611;BME280;46439;51.164;13.572;2023-10-09T11:49:06;99954.70;;;16.54;100.00
60611;BME280;46439;51.164;13.572;2023-10-09T11:51:46;99949.35;;;16.57;100.00
60611;BME280;46439;51.164;13.572;2023-10-09T11:54:51;99944.98;;;16.55;100.00
60611;BME280;46439;51.164;13.572;2023-10-09T11:57:23;99942.98;;;16.50;100.00
60611;BME280;46439;51.164;13.572;2023-10-09T11:59:57;99943.31;;;16.49;100.00
60611;BME280;46439;51.164;13.572;2023-10-09T12:02:25;99947.67;;;16.49;100.00
60611;BME280;46439;51.164;13.572;2023-10-09T12:04:52;99949.79;;;16.47;100.00
60611;BME280;46439;51.164;13.572;2023-10-09T12:07:23;99947.16;;;16.44;100.00
60611;BME280;46439;51.164;13.572;2023-10-09T12:09:51;99946.09;;;16.40;100.00
60611;BME280;46439;51.164;13.572;2023-10-09T12:12:23;99948.46;;;16.36;100.00
60611;BME280;46439;51.164;13.572;2023-10-09T12:14:53;99947.80;;;16.36;100.00
60611;BME280;46439;51.164;13.572;2023-10-09T12:17:20;99947.02;;;16.37;100.00
60611;BME280;46439;51.164;13.572;2023-10-09T12:19:52;99945.68;;;16.39;100.00
60611;BME280;46439;51.164;13.572;2023-10-09T12:22:19;99946.30;;;16.41;100.00
60611;BME280;46439;51.164;13.572;2023-10-09T12:24:48;99947.55;;;16.43;100.00
60611;BME280;46439;51.164;13.572;2023-10-09T12:27:14;99951.75;;;16.41;100.00
60611;BME280;46439;51.164;13.572;2023-10-09T12:29:46;99953.77;;;16.40;100.00
60611;BME280;46439;51.164;13.572;2023-10-09T12:32:14;99952.02;;;16.40;100.00
60611;BME280;46439;51.164;13.572;2023-10-09T12:34:46;99952.61;;;16.37;100.00
60611;BME280;46439;51.164;13.572;2023-10-09T12:37:16;99952.54;;;16.36;100.00
60611;BME280;46439;51.164;13.572;2023-10-09T12:39:47;99946.62;;;16.37;100.00
60611;BME280;46439;51.164;13.572;2023-10-09T12:42:14;99952.30;;;16.39;100.00
60611;BME280;46439;51.164;13.572;2023-10-09T12:44:43;99952.58;;;16.44;100.00
60611;BME280;46439;51.164;13.572;2023-10-09T12:47:11;99949.02;;;16.45;100.00
60611;BME280;46439;51.164;13.572;2023-10-09T12:49:38;99947.61;;;16.47;100.00
60611;BME280;46439;51.164;13.572;2023-10-09T12:52:08;99951.34;;;16.54;100.00
60611;BME280;46439;51.164;13.572;2023-10-09T12:54:44;99948.04;;;16.53;100.00
60611;BME280;46439;51.164;13.572;2023-10-09T12:57:14;99944.89;;;16.54;100.00
60611;BME280;46439;51.164;13.572;2023-10-09T12:59:41;99948.73;;;16.56;100.00
60611;BME280;46439;51.164;13.572;2023-10-09T13:02:12;99944.60;;;16.61;100.00
60611;BME280;46439;51.164;13.572;2023-10-09T13:04:40;99944.64;;;16.67;100.00
60611;BME280;46439;51.164;13.572;2023-10-09T13:07:09;99940.48;;;16.70;100.00
60611;BME280;46439;51.164;13.572;2023-10-09T13:09:36;99938.99;;;16.72;100.00
60611;BME280;46439;51.164;13.572;2023-10-09T13:12:09;99934.67;;;16.72;100.00
60611;BME280;46439;51.164;13.572;2023-10-09T13:14:44;99930.38;;;16.70;100.00
60611;BME280;46439;51.164;13.572;2023-10-09T13:17:12;99930.71;;;16.75;100.00
60611;BME280;46439;51.164;13.572;2023-10-09T13:19:40;99928.56;;;16.78;100.00
60611;BME280;46439;51.164;13.572;2023-10-09T13:22:07;99931.86;;;16.84;100.00
60611;BME280;46439;51.164;13.572;2023-10-09T13:24:39;99929.54;;;16.84;100.00